createdAt,value
2022-08-02T00:00:44.807Z,56.30
2022-08-02T00:03:48.232Z,56.50
2022-08-02T00:06:52.790Z,56.60
2022-08-02T00:09:55.966Z,58.00
2022-08-02T00:12:59.157Z,57.20
2022-08-02T00:16:02.890Z,57.70
2022-08-02T00:19:06.448Z,57.50
2022-08-02T00:22:11.274Z,57.80
2022-08-02T00:25:14.690Z,58.20
2022-08-02T00:28:21.859Z,58.40
2022-08-02T00:31:30.492Z,58.40
2022-08-02T00:34:37.729Z,58.30
2022-08-02T00:37:43.683Z,58.40
2022-08-02T00:40:49.463Z,59.40
2022-08-02T00:43:53.583Z,58.80
2022-08-02T00:46:56.841Z,58.80
2022-08-02T00:50:01.263Z,58.90
2022-08-02T00:53:06.845Z,59.10
2022-08-02T00:56:10.334Z,60.20
2022-08-02T00:59:14.054Z,59.30
2022-08-02T01:02:18.499Z,58.60
2022-08-02T01:05:21.845Z,60.00
2022-08-02T01:08:29.669Z,59.20
2022-08-02T01:11:38.046Z,59.30
2022-08-02T01:14:44.249Z,59.10
2022-08-02T01:17:56.623Z,59.30
2022-08-02T01:21:39.230Z,59.70
2022-08-02T01:25:16.169Z,60.10
2022-08-02T01:28:35.919Z,60.70
2022-08-02T01:31:48.799Z,60.70
2022-08-02T01:35:00.806Z,60.40
2022-08-02T01:38:14.159Z,60.60
2022-08-02T01:41:22.427Z,61.20
2022-08-02T01:44:31.365Z,61.20
2022-08-02T01:47:40.561Z,62.10
2022-08-02T01:50:45.635Z,61.40
2022-08-02T01:53:52.512Z,61.40
2022-08-02T01:56:58.449Z,61.60
2022-08-02T02:00:07.681Z,61.50
2022-08-02T02:03:26.122Z,62.10
2022-08-02T02:06:30.345Z,62.40
2022-08-02T02:09:40.805Z,61.40
2022-08-02T02:12:56.548Z,62.50
2022-08-02T02:16:06.078Z,61.30
2022-08-02T02:19:20.874Z,61.80
2022-08-02T02:22:24.734Z,61.80
2022-08-02T02:25:36.016Z,62.10
2022-08-02T02:28:42.087Z,62.20
2022-08-02T02:31:49.650Z,62.10
2022-08-02T02:34:54.327Z,63.30
2022-08-02T02:38:01.895Z,62.30
2022-08-02T02:41:07.824Z,62.00
2022-08-02T02:44:17.654Z,62.10
2022-08-02T02:47:41.588Z,63.60
2022-08-02T02:50:46.410Z,62.40
2022-08-02T02:54:33.117Z,62.30
2022-08-02T02:57:16.569Z,62.50
2022-08-02T03:00:40.316Z,63.00
2022-08-02T03:03:46.247Z,63.30
2022-08-02T03:06:49.694Z,63.00
2022-08-02T03:09:54.558Z,62.90
2022-08-02T03:12:59.654Z,63.00
2022-08-02T03:16:04.441Z,63.20
2022-08-02T03:19:08.942Z,63.20
2022-08-02T03:22:13.116Z,63.60
2022-08-02T03:25:18.886Z,64.10
2022-08-02T03:28:21.990Z,64.40
2022-08-02T03:31:25.263Z,64.00
2022-08-02T03:34:30.476Z,64.40
2022-08-02T03:37:36.554Z,64.40
2022-08-02T03:40:40.800Z,64.70
2022-08-02T03:43:44.841Z,64.80
2022-08-02T03:46:48.524Z,65.40
2022-08-02T03:49:54.619Z,64.40
2022-08-02T03:52:58.621Z,65.00
2022-08-02T03:56:02.299Z,65.10
2022-08-02T03:59:11.254Z,65.20
2022-08-02T04:02:15.359Z,65.80
2022-08-02T04:05:21.939Z,65.50
2022-08-02T04:08:35.086Z,66.60
2022-08-02T04:11:40.635Z,65.80
2022-08-02T04:14:44.163Z,65.90
2022-08-02T04:17:58.583Z,66.20
2022-08-02T04:21:06.441Z,66.60
2022-08-02T04:24:12.734Z,67.20
2022-08-02T04:27:51.321Z,66.30
2022-08-02T04:30:51.913Z,66.40
2022-08-02T04:33:56.109Z,66.60
2022-08-02T04:37:01.034Z,67.40
2022-08-02T04:40:04.575Z,67.50
2022-08-02T04:43:08.663Z,67.10
2022-08-02T04:46:12.075Z,67.60
2022-08-02T04:49:15.324Z,67.80
2022-08-02T04:52:19.963Z,67.30
2022-08-02T04:55:28.278Z,67.40
2022-08-02T04:58:40.712Z,66.00
2022-08-02T05:01:44.444Z,65.10
2022-08-02T05:04:47.658Z,65.20
2022-08-02T05:07:52.515Z,63.70
2022-08-02T05:10:55.680Z,64.00
2022-08-02T05:13:59.575Z,63.40
2022-08-02T05:17:02.885Z,61.90
2022-08-02T05:20:07.646Z,60.50
2022-08-02T05:23:12.403Z,59.30
2022-08-02T05:26:15.631Z,58.30
2022-08-02T05:29:19.091Z,58.40
2022-08-02T05:32:23.683Z,57.90
2022-08-02T05:35:28.251Z,58.10
2022-08-02T05:38:32.774Z,58.30
2022-08-02T05:41:40.388Z,58.00
2022-08-02T05:44:43.935Z,58.20
2022-08-02T05:47:47.726Z,57.00
2022-08-02T05:50:56.837Z,57.80
2022-08-02T05:54:12.319Z,56.90
2022-08-02T05:57:27.160Z,56.40
2022-08-02T06:00:35.381Z,56.40
2022-08-02T06:03:51.495Z,56.10
2022-08-02T06:06:58.983Z,55.80
2022-08-02T06:10:06.199Z,55.20
2022-08-02T06:13:14.567Z,54.80
2022-08-02T06:16:31.795Z,54.70
2022-08-02T06:19:51.154Z,55.10
2022-08-02T06:22:59.542Z,54.80
2022-08-02T06:26:07.829Z,55.40
2022-08-02T06:29:13.138Z,54.50
2022-08-02T06:32:19.986Z,54.20
2022-08-02T06:35:23.428Z,52.40
2022-08-02T06:38:33.454Z,51.50
2022-08-02T06:41:42.926Z,50.20
2022-08-02T06:44:49.579Z,48.20
2022-08-02T06:47:55.555Z,48.10
2022-08-02T06:50:58.738Z,47.80
2022-08-02T06:54:02.189Z,48.20
2022-08-02T06:57:06.804Z,47.80
2022-08-02T07:00:12.539Z,47.90
2022-08-02T07:03:16.016Z,48.30
2022-08-02T07:06:19.231Z,48.90
2022-08-02T07:09:22.524Z,49.00
2022-08-02T07:12:27.685Z,49.00
2022-08-02T07:15:32.104Z,49.00
2022-08-02T07:18:36.552Z,49.50
2022-08-02T07:21:57.516Z,49.10
2022-08-02T07:25:04.029Z,48.80
2022-08-02T07:28:18.546Z,48.40
2022-08-02T07:31:27.478Z,48.20
2022-08-02T07:34:30.683Z,48.70
2022-08-02T07:37:55.201Z,49.40
2022-08-02T07:40:59.320Z,50.90
2022-08-02T07:44:03.872Z,49.60
2022-08-02T07:47:07.885Z,49.00
2022-08-02T07:50:14.998Z,48.60
2022-08-02T07:53:18.372Z,48.10
2022-08-02T07:56:21.589Z,47.70
2022-08-02T07:59:26.254Z,47.70
2022-08-02T08:02:29.454Z,47.80
2022-08-02T08:05:32.900Z,47.70
2022-08-02T08:08:36.228Z,47.40
2022-08-02T08:11:39.647Z,47.00
2022-08-02T08:14:45.153Z,45.50
2022-08-02T08:17:48.858Z,46.40
2022-08-02T08:20:52.376Z,46.70
2022-08-02T08:23:55.577Z,46.80
2022-08-02T08:26:58.929Z,47.40
2022-08-02T08:30:03.547Z,46.10
2022-08-02T08:33:06.665Z,46.90
2022-08-02T08:36:09.975Z,46.70
2022-08-02T08:39:13.170Z,46.70
2022-08-02T08:42:16.453Z,46.80
2022-08-02T08:45:23.435Z,45.90
2022-08-02T08:48:31.250Z,46.60
2022-08-02T08:51:43.417Z,46.60
2022-08-02T08:54:49.888Z,46.90
2022-08-02T08:57:55.793Z,46.90
2022-08-02T09:01:01.188Z,46.80
2022-08-02T09:04:04.559Z,47.40
2022-08-02T09:07:08.013Z,47.30
2022-08-02T09:10:38.073Z,47.30
2022-08-02T09:13:52.024Z,47.70
2022-08-02T09:17:10.846Z,47.70
2022-08-02T09:20:14.870Z,47.50
2022-08-02T09:23:18.765Z,47.50
2022-08-02T09:26:25.092Z,47.20
2022-08-02T09:29:28.694Z,47.70
2022-08-02T09:32:46.075Z,48.30
2022-08-02T09:36:06.454Z,48.90
2022-08-02T09:39:14.125Z,48.20
2022-08-02T09:42:17.410Z,48.40
2022-08-02T09:45:20.667Z,48.00
2022-08-02T09:48:25.192Z,47.60
2022-08-02T09:51:34.684Z,47.20
2022-08-02T09:54:41.266Z,47.00
2022-08-02T09:57:51.069Z,46.90
2022-08-02T10:00:56.526Z,46.70
2022-08-02T10:04:04.007Z,47.20
2022-08-02T10:07:08.424Z,46.80
2022-08-02T10:10:12.736Z,47.30
2022-08-02T10:13:21.637Z,47.00
2022-08-02T10:16:26.086Z,46.90
2022-08-02T10:20:00.508Z,47.60
2022-08-02T10:22:56.220Z,47.10
2022-08-02T10:26:01.095Z,47.70
2022-08-02T10:29:04.767Z,48.00
2022-08-02T10:32:14.882Z,48.30
2022-08-02T10:35:26.680Z,48.70
2022-08-02T10:38:30.804Z,48.50
2022-08-02T10:41:50.591Z,48.80
2022-08-02T10:45:11.181Z,49.30
2022-08-02T10:48:15.481Z,48.70
2022-08-02T10:51:24.558Z,50.00
2022-08-02T10:54:29.980Z,50.10
2022-08-02T10:57:36.387Z,50.90
2022-08-02T11:00:39.599Z,50.40
2022-08-02T11:03:46.085Z,50.60
2022-08-02T11:07:14.013Z,50.80
2022-08-02T11:10:39.473Z,50.80
2022-08-02T11:14:02.169Z,49.80
2022-08-02T11:17:16.367Z,49.30
2022-08-02T11:20:21.727Z,50.00
2022-08-02T11:23:45.150Z,48.60
2022-08-02T11:26:49.513Z,48.00
2022-08-02T11:29:53.058Z,48.20
2022-08-02T11:32:58.122Z,47.40
2022-08-02T11:36:08.087Z,47.30
2022-08-02T11:39:15.941Z,47.00
2022-08-02T11:42:19.335Z,46.80
2022-08-02T11:45:29.870Z,45.60
2022-08-02T11:48:36.088Z,45.20
2022-08-02T11:51:39.424Z,44.40
2022-08-02T11:54:50.880Z,43.60
2022-08-02T11:58:04.267Z,41.60
2022-08-02T12:01:09.143Z,41.10
2022-08-02T12:04:12.806Z,41.40
2022-08-02T12:07:15.993Z,40.80
2022-08-02T12:10:23.071Z,40.60
2022-08-02T12:13:26.278Z,40.30
2022-08-02T12:16:53.945Z,41.20
2022-08-02T12:19:57.683Z,40.70
2022-08-02T12:23:04.195Z,41.80
2022-08-02T12:26:16.129Z,41.30
2022-08-02T12:29:58.429Z,41.00
2022-08-02T12:32:55.054Z,41.70
2022-08-02T12:35:58.570Z,42.10
2022-08-02T12:39:02.958Z,42.30
2022-08-02T12:42:10.147Z,43.00
2022-08-02T12:45:13.705Z,42.90
2022-08-02T12:48:19.023Z,43.70
2022-08-02T12:51:50.955Z,43.70
2022-08-02T12:54:52.687Z,44.10
2022-08-02T12:58:02.511Z,45.20
2022-08-02T13:01:05.687Z,45.50
2022-08-02T13:04:13.700Z,45.60
2022-08-02T13:07:17.508Z,45.00
2022-08-02T13:10:22.018Z,45.30
2022-08-02T13:13:26.722Z,46.30
2022-08-02T13:16:31.627Z,46.10
2022-08-02T13:19:34.928Z,47.20
2022-08-02T13:22:52.828Z,47.70
2022-08-02T13:25:56.894Z,48.60
2022-08-02T13:29:01.435Z,48.90
2022-08-02T13:32:04.793Z,49.10
2022-08-02T13:35:09.814Z,49.30
2022-08-02T13:38:24.915Z,49.70
2022-08-02T13:41:29.245Z,50.50
2022-08-02T13:44:34.194Z,50.00
2022-08-02T13:48:03.704Z,50.00
2022-08-02T13:51:03.075Z,50.00
2022-08-02T13:54:06.327Z,50.00
2022-08-02T13:57:09.675Z,50.50
2022-08-02T14:00:16.441Z,49.90
2022-08-02T14:03:19.602Z,50.10
2022-08-02T14:06:22.819Z,50.10
2022-08-02T14:09:26.442Z,51.00
2022-08-02T14:12:29.602Z,50.20
2022-08-02T14:15:34.277Z,49.60
2022-08-02T14:18:37.731Z,49.10
2022-08-02T14:21:46.397Z,49.70
2022-08-02T14:24:51.084Z,49.60
2022-08-02T14:27:54.327Z,48.80
2022-08-02T14:30:59.046Z,48.70
2022-08-02T14:34:02.247Z,48.80
2022-08-02T14:37:05.487Z,48.40
2022-08-02T14:40:28.106Z,48.30
2022-08-02T14:43:51.251Z,47.30
2022-08-02T14:46:56.327Z,46.40
2022-08-02T14:49:59.637Z,44.80
2022-08-02T14:53:03.079Z,43.90
2022-08-02T14:56:06.356Z,42.50
2022-08-02T14:59:09.731Z,41.80
2022-08-02T15:02:14.890Z,40.90
2022-08-02T15:05:18.440Z,39.90
2022-08-02T15:08:21.616Z,39.40
2022-08-02T15:11:24.896Z,38.70
2022-08-02T15:14:28.128Z,37.30
2022-08-02T15:17:32.934Z,36.90
2022-08-02T15:20:36.211Z,36.60
2022-08-02T15:23:42.854Z,36.50
2022-08-02T15:26:46.119Z,36.10
2022-08-02T15:29:49.306Z,36.20
2022-08-02T15:32:53.933Z,35.70
2022-08-02T15:35:58.053Z,35.80
2022-08-02T15:39:01.189Z,36.00
2022-08-02T15:42:05.442Z,36.10
2022-08-02T15:45:13.115Z,36.20
2022-08-02T15:48:20.538Z,36.20
2022-08-02T15:51:23.678Z,35.80
2022-08-02T15:54:26.884Z,36.10
2022-08-02T15:57:30.092Z,36.00
2022-08-02T16:00:33.739Z,36.00
2022-08-02T16:03:38.326Z,35.90
2022-08-02T16:06:42.244Z,36.00
2022-08-02T16:09:45.309Z,36.00
2022-08-02T16:12:48.499Z,36.60
2022-08-02T16:15:51.639Z,36.40
2022-08-02T16:18:56.788Z,37.60
2022-08-02T16:22:00.001Z,36.20
2022-08-02T16:25:03.887Z,36.40
2022-08-02T16:28:08.101Z,36.30
2022-08-02T16:31:11.865Z,36.30
2022-08-02T16:34:16.793Z,36.20
2022-08-02T16:37:20.018Z,36.00
2022-08-02T16:40:24.027Z,35.90
2022-08-02T16:43:27.770Z,35.80
2022-08-02T16:46:32.907Z,35.80
2022-08-02T16:50:05.181Z,36.00
2022-08-02T16:53:00.679Z,36.20
2022-08-02T16:56:11.318Z,37.10
2022-08-02T16:59:15.065Z,37.60
2022-08-02T17:02:19.698Z,38.40
2022-08-02T17:05:37.877Z,38.90
2022-08-02T17:08:55.452Z,39.80
2022-08-02T17:11:58.630Z,39.60
2022-08-02T17:16:15.877Z,40.50
2022-08-02T17:18:27.113Z,41.80
2022-08-02T17:21:33.962Z,42.10
2022-08-02T17:24:37.172Z,42.90
2022-08-02T17:27:41.766Z,42.60
2022-08-02T17:30:46.149Z,43.50
2022-08-02T17:33:49.580Z,43.70
2022-08-02T17:36:54.721Z,43.40
2022-08-02T17:39:58.416Z,44.00
2022-08-02T17:43:01.611Z,44.00
2022-08-02T17:46:17.999Z,44.40
2022-08-02T17:49:23.946Z,44.00
2022-08-02T17:52:52.441Z,44.50
2022-08-02T17:55:52.244Z,44.90
2022-08-02T17:58:55.686Z,44.60
2022-08-02T18:02:03.745Z,44.70
2022-08-02T18:05:11.583Z,45.00
2022-08-02T18:08:17.300Z,45.80
2022-08-02T18:11:52.201Z,46.90
2022-08-02T18:14:49.076Z,47.40
2022-08-02T18:17:54.787Z,46.60
2022-08-02T18:21:16.084Z,47.10
2022-08-02T18:24:25.699Z,46.70
2022-08-02T18:27:32.105Z,47.30
2022-08-02T18:30:35.346Z,47.50
2022-08-02T18:33:59.168Z,47.70
2022-08-02T18:37:02.690Z,48.10
2022-08-02T18:40:09.727Z,47.70
2022-08-02T18:46:36.304Z,47.50
2022-08-02T18:49:46.229Z,47.50
2022-08-02T18:52:51.316Z,47.90
2022-08-02T18:56:03.852Z,47.90
2022-08-02T18:59:08.332Z,48.60
2022-08-02T19:02:14.730Z,48.70
2022-08-02T19:05:21.140Z,48.30
2022-08-02T19:08:25.460Z,50.00
2022-08-02T19:11:35.157Z,49.40
2022-08-02T19:14:38.596Z,49.00
2022-08-02T19:17:53.572Z,48.70
2022-08-02T19:21:05.671Z,49.60
2022-08-02T19:24:10.814Z,50.10
2022-08-02T19:27:20.694Z,51.10
2022-08-02T19:30:29.382Z,50.70
2022-08-02T19:34:06.574Z,50.40
2022-08-02T19:36:56.087Z,50.50
2022-08-02T19:40:00.628Z,51.00
2022-08-02T19:44:27.473Z,51.50
2022-08-02T19:46:31.149Z,51.60
2022-08-02T19:49:39.682Z,52.20
2022-08-02T19:52:44.439Z,51.00
2022-08-02T19:56:01.372Z,51.90
2022-08-02T19:59:13.070Z,52.90
2022-08-02T20:02:18.361Z,52.10
2022-08-02T20:05:26.812Z,51.90
2022-08-02T20:08:31.656Z,51.80
2022-08-02T20:11:39.162Z,51.90
2022-08-02T20:14:51.041Z,51.90
2022-08-02T20:17:55.296Z,52.70
2022-08-02T20:20:59.221Z,52.30
2022-08-02T20:24:02.483Z,52.50
2022-08-02T20:27:06.124Z,52.00
2022-08-02T20:30:12.688Z,52.90
2022-08-02T20:33:21.600Z,53.10
2022-08-02T20:36:25.619Z,53.30
2022-08-02T20:39:42.687Z,53.40
2022-08-02T20:42:48.442Z,53.80
2022-08-02T20:45:53.846Z,53.60
2022-08-02T20:48:59.569Z,54.50
2022-08-02T20:52:23.756Z,54.70
2022-08-02T20:55:30.980Z,55.30
2022-08-02T20:58:35.006Z,56.00
2022-08-02T21:01:40.990Z,56.00
2022-08-02T21:05:00.837Z,56.90
2022-08-02T21:08:14.887Z,57.10
2022-08-02T21:11:18.343Z,57.50
2022-08-02T21:14:22.088Z,57.90
2022-08-02T21:17:43.191Z,58.30
2022-08-02T21:20:53.573Z,59.10
2022-08-02T21:23:56.775Z,58.30
2022-08-02T21:26:59.935Z,59.70
2022-08-02T21:30:04.706Z,59.90
2022-08-02T21:33:22.432Z,61.30
2022-08-02T21:36:30.409Z,61.30
2022-08-02T21:39:34.886Z,61.20
2022-08-02T21:42:38.708Z,61.50
2022-08-02T21:45:48.041Z,62.80
2022-08-02T21:48:58.416Z,61.50
2022-08-02T21:52:01.704Z,62.70
2022-08-02T21:55:05.697Z,62.10
2022-08-02T21:58:11.873Z,62.40
2022-08-02T22:01:15.236Z,62.70
2022-08-02T22:04:22.371Z,62.40
2022-08-02T22:07:25.564Z,63.70
2022-08-02T22:10:28.745Z,63.20
2022-08-02T22:13:38.765Z,63.30
2022-08-02T22:16:50.499Z,63.50
2022-08-02T22:19:55.318Z,63.40
2022-08-02T22:22:58.549Z,63.80
2022-08-02T22:26:03.263Z,63.80
2022-08-02T22:29:06.687Z,64.10
2022-08-02T22:32:10.869Z,64.20
2022-08-02T22:35:24.947Z,64.20
2022-08-02T22:38:28.384Z,64.60
2022-08-02T22:42:05.365Z,64.40
2022-08-02T22:44:55.184Z,64.50
2022-08-02T22:47:58.432Z,64.70
2022-08-02T22:51:04.401Z,64.70
2022-08-02T22:54:11.740Z,65.20
2022-08-02T22:57:15.491Z,65.20
2022-08-02T22:58:45.271Z,47.50
2022-08-02T23:00:19.602Z,65.10
2022-08-02T23:03:22.828Z,65.00
2022-08-02T23:06:27.372Z,64.90
2022-08-02T23:09:30.598Z,65.00
2022-08-02T23:12:33.850Z,64.80
2022-08-02T23:15:53.746Z,64.80
2022-08-02T23:19:14.651Z,65.10
2022-08-02T23:22:20.378Z,64.50
2022-08-02T23:25:23.738Z,64.70
2022-08-02T23:28:27.113Z,64.60
2022-08-02T23:31:38.249Z,64.50
2022-08-02T23:34:43.067Z,63.60
2022-08-02T23:37:59.298Z,64.90
2022-08-02T23:41:05.076Z,64.30
2022-08-02T23:44:14.182Z,64.10
2022-08-02T23:47:18.899Z,64.20
2022-08-02T23:50:21.942Z,64.80
2022-08-02T23:53:26.570Z,64.40
2022-08-02T23:56:29.841Z,64.10
2022-08-02T23:59:33.873Z,64.00
